sensor_id;sensor_type;location;lat;lon;timestamp;temperature;humidity
55219;DHT22;41088;44.012;20.902;2022-08-18T00:01:21;589.30;2432.00
55219;DHT22;41088;44.012;20.902;2022-08-18T00:03:48;589.20;2432.00
55219;DHT22;41088;44.012;20.902;2022-08-18T00:06:15;589.20;2432.00
55219;DHT22;41088;44.012;20.902;2022-08-18T00:08:45;589.20;2432.00
55219;DHT22;41088;44.012;20.902;2022-08-18T00:11:11;589.30;2432.00
55219;DHT22;41088;44.012;20.902;2022-08-18T00:13:37;589.10;2432.00
55219;DHT22;41088;44.012;20.902;2022-08-18T00:16:03;589.30;2432.00
55219;DHT22;41088;44.012;20.902;2022-08-18T00:23:31;589.30;2432.00
55219;DHT22;41088;44.012;20.902;2022-08-18T00:25:58;589.00;2432.00
55219;DHT22;41088;44.012;20.902;2022-08-18T00:28:25;588.90;2432.00
55219;DHT22;41088;44.012;20.902;2022-08-18T00:30:51;588.90;2432.00
55219;DHT22;41088;44.012;20.902;2022-08-18T00:33:17;588.90;2432.00
55219;DHT22;41088;44.012;20.902;2022-08-18T00:35:49;588.90;2432.00
55219;DHT22;41088;44.012;20.902;2022-08-18T00:38:15;588.90;2432.00
55219;DHT22;41088;44.012;20.902;2022-08-18T00:40:44;588.90;2432.00
55219;DHT22;41088;44.012;20.902;2022-08-18T00:43:12;564.10;2432.00
55219;DHT22;41088;44.012;20.902;2022-08-18T00:45:41;564.10;2432.00
55219;DHT22;41088;44.012;20.902;2022-08-18T00:48:09;564.10;2432.00
55219;DHT22;41088;44.012;20.902;2022-08-18T00:50:52;564.00;2432.00
55219;DHT22;41088;44.012;20.902;2022-08-18T01:16:10;563.80;2432.00
55219;DHT22;41088;44.012;20.902;2022-08-18T01:18:57;563.70;2432.00
55219;DHT22;41088;44.012;20.902;2022-08-18T01:21:45;563.80;2432.00
55219;DHT22;41088;44.012;20.902;2022-08-18T01:24:17;563.80;2432.00
55219;DHT22;41088;44.012;20.902;2022-08-18T01:26:45;563.70;2432.00
55219;DHT22;41088;44.012;20.902;2022-08-18T01:29:16;563.70;2432.00
55219;DHT22;41088;44.012;20.902;2022-08-18T01:31:50;563.70;2432.00
55219;DHT22;41088;44.012;20.902;2022-08-18T01:34:25;563.60;2432.00
55219;DHT22;41088;44.012;20.902;2022-08-18T01:36:53;563.60;2432.00
55219;DHT22;41088;44.012;20.902;2022-08-18T01:39:20;563.60;2432.00
55219;DHT22;41088;44.012;20.902;2022-08-18T01:41:46;563.60;2432.00
55219;DHT22;41088;44.012;20.902;2022-08-18T01:44:12;563.50;2432.00
55219;DHT22;41088;44.012;20.902;2022-08-18T01:46:39;563.60;2432.00
55219;DHT22;41088;44.012;20.902;2022-08-18T01:49:07;563.50;2432.00
55219;DHT22;41088;44.012;20.902;2022-08-18T01:51:34;563.70;2432.00
55219;DHT22;41088;44.012;20.902;2022-08-18T01:54:03;563.50;2432.00
55219;DHT22;41088;44.012;20.902;2022-08-18T01:56:30;563.50;2432.00
55219;DHT22;41088;44.012;20.902;2022-08-18T01:58:56;563.50;2432.00
55219;DHT22;41088;44.012;20.902;2022-08-18T02:01:25;563.60;2432.00
55219;DHT22;41088;44.012;20.902;2022-08-18T02:03:53;563.60;2432.00
55219;DHT22;41088;44.012;20.902;2022-08-18T02:06:24;563.50;2432.00
55219;DHT22;41088;44.012;20.902;2022-08-18T02:08:50;563.50;2432.00
55219;DHT22;41088;44.012;20.902;2022-08-18T02:11:16;563.50;2432.00
55219;DHT22;41088;44.012;20.902;2022-08-18T02:13:42;563.50;2432.00
55219;DHT22;41088;44.012;20.902;2022-08-18T02:16:08;563.40;2432.00
55219;DHT22;41088;44.012;20.902;2022-08-18T02:18:36;563.40;2432.00
55219;DHT22;41088;44.012;20.902;2022-08-18T02:21:14;563.30;2432.00
55219;DHT22;41088;44.012;20.902;2022-08-18T02:23:42;563.30;2432.00
55219;DHT22;41088;44.012;20.902;2022-08-18T02:26:12;563.30;2432.00
55219;DHT22;41088;44.012;20.902;2022-08-18T02:28:38;563.20;2432.00
55219;DHT22;41088;44.012;20.902;2022-08-18T02:31:14;563.20;2432.00
55219;DHT22;41088;44.012;20.902;2022-08-18T02:33:41;563.30;2432.00
55219;DHT22;41088;44.012;20.902;2022-08-18T02:36:08;563.20;2432.00
55219;DHT22;41088;44.012;20.902;2022-08-18T02:38:34;563.30;2432.00
55219;DHT22;41088;44.012;20.902;2022-08-18T02:41:03;563.20;2432.00
55219;DHT22;41088;44.012;20.902;2022-08-18T02:43:31;538.50;2406.40
55219;DHT22;41088;44.012;20.902;2022-08-18T02:45:57;538.50;2406.40
55219;DHT22;41088;44.012;20.902;2022-08-18T02:48:24;563.20;2432.00
55219;DHT22;41088;44.012;20.902;2022-08-18T02:51:18;563.20;2432.00
55219;DHT22;41088;44.012;20.902;2022-08-18T02:53:48;538.50;2406.40
55219;DHT22;41088;44.012;20.902;2022-08-18T02:56:19;538.40;2406.40
55219;DHT22;41088;44.012;20.902;2022-08-18T02:58:51;538.40;2406.40
55219;DHT22;41088;44.012;20.902;2022-08-18T03:01:22;538.40;2406.40
55219;DHT22;41088;44.012;20.902;2022-08-18T03:03:51;538.40;2406.40
55219;DHT22;41088;44.012;20.902;2022-08-18T03:06:19;538.40;2406.40
55219;DHT22;41088;44.012;20.902;2022-08-18T03:08:46;538.40;2406.40
55219;DHT22;41088;44.012;20.902;2022-08-18T03:11:24;538.40;2406.40
55219;DHT22;41088;44.012;20.902;2022-08-18T03:13:51;538.40;2406.40
55219;DHT22;41088;44.012;20.902;2022-08-18T03:16:19;538.30;2406.40
55219;DHT22;41088;44.012;20.902;2022-08-18T03:18:46;538.40;2406.40
55219;DHT22;41088;44.012;20.902;2022-08-18T03:21:21;538.40;2406.40
55219;DHT22;41088;44.012;20.902;2022-08-18T03:23:48;538.40;2406.40
55219;DHT22;41088;44.012;20.902;2022-08-18T03:26:17;538.40;2406.40
55219;DHT22;41088;44.012;20.902;2022-08-18T03:28:46;538.30;2406.40
55219;DHT22;41088;44.012;20.902;2022-08-18T03:31:14;538.30;2406.40
55219;DHT22;41088;44.012;20.902;2022-08-18T03:33:44;538.20;2406.40
55219;DHT22;41088;44.012;20.902;2022-08-18T03:36:17;538.30;2406.40
55219;DHT22;41088;44.012;20.902;2022-08-18T03:38:44;538.40;2406.40
55219;DHT22;41088;44.012;20.902;2022-08-18T03:41:13;538.30;2406.40
55219;DHT22;41088;44.012;20.902;2022-08-18T03:43:39;538.30;2406.40
55219;DHT22;41088;44.012;20.902;2022-08-18T03:46:08;538.30;2406.40
55219;DHT22;41088;44.012;20.902;2022-08-18T03:48:35;538.30;2406.40
55219;DHT22;41088;44.012;20.902;2022-08-18T03:51:04;538.20;2406.40
55219;DHT22;41088;44.012;20.902;2022-08-18T03:53:32;538.20;2406.40
55219;DHT22;41088;44.012;20.902;2022-08-18T03:55:59;538.20;2406.40
55219;DHT22;41088;44.012;20.902;2022-08-18T03:58:28;538.20;2406.40
55219;DHT22;41088;44.012;20.902;2022-08-18T04:00:54;538.20;2406.40
55219;DHT22;41088;44.012;20.902;2022-08-18T04:03:20;538.30;2406.40
55219;DHT22;41088;44.012;20.902;2022-08-18T04:05:46;538.40;2406.40
55219;DHT22;41088;44.012;20.902;2022-08-18T04:08:12;538.50;2406.40
55219;DHT22;41088;44.012;20.902;2022-08-18T04:10:38;538.50;2406.40
55219;DHT22;41088;44.012;20.902;2022-08-18T04:13:04;563.20;2432.00
55219;DHT22;41088;44.012;20.902;2022-08-18T04:15:31;563.20;2432.00
55219;DHT22;41088;44.012;20.902;2022-08-18T04:18:00;563.20;2432.00
55219;DHT22;41088;44.012;20.902;2022-08-18T04:20:35;563.20;2432.00
55219;DHT22;41088;44.012;20.902;2022-08-18T04:25:34;589.70;2432.00
55219;DHT22;41088;44.012;20.902;2022-08-18T04:28:06;615.10;2432.00
55219;DHT22;41088;44.012;20.902;2022-08-18T04:30:44;666.20;2432.00
55219;DHT22;41088;44.012;20.902;2022-08-18T04:38:09;768.00;2432.00
55219;DHT22;41088;44.012;20.902;2022-08-18T04:43:09;819.20;2252.80
55219;DHT22;41088;44.012;20.902;2022-08-18T04:54:15;896.60;1843.20
55219;DHT22;41088;44.012;20.902;2022-08-18T04:56:33;896.80;1792.00
55219;DHT22;41088;44.012;20.902;2022-08-18T06:40:00;717.60;2073.60
55219;DHT22;41088;44.012;20.902;2022-08-18T06:42:27;717.60;2099.20
55219;DHT22;41088;44.012;20.902;2022-08-18T06:45:12;717.60;2099.20
55219;DHT22;41088;44.012;20.902;2022-08-18T06:50:58;717.60;2124.80
55219;DHT22;41088;44.012;20.902;2022-08-18T06:57:04;717.70;2124.80
55219;DHT22;41088;44.012;20.902;2022-08-18T06:59:58;742.40;2150.40
55219;DHT22;41088;44.012;20.902;2022-08-18T07:03:39;742.40;2073.60
55219;DHT22;41088;44.012;20.902;2022-08-18T07:22:12;742.70;2022.40
55219;DHT22;41088;44.012;20.902;2022-08-18T07:25:18;742.80;1996.80
55219;DHT22;41088;44.012;20.902;2022-08-18T07:28:02;742.90;1971.20
55219;DHT22;41088;44.012;20.902;2022-08-18T07:33:41;743.00;1996.80
55219;DHT22;41088;44.012;20.902;2022-08-18T07:36:19;743.00;1971.20
55219;DHT22;41088;44.012;20.902;2022-08-18T07:39:02;743.00;1996.80
55219;DHT22;41088;44.012;20.902;2022-08-18T07:45:18;743.10;1996.80
55219;DHT22;41088;44.012;20.902;2022-08-18T07:54:04;768.00;1971.20
55219;DHT22;41088;44.012;20.902;2022-08-18T08:17:41;768.50;1920.00
55219;DHT22;41088;44.012;20.902;2022-08-18T08:36:26;793.60;1843.20
55219;DHT22;41088;44.012;20.902;2022-08-18T08:48:55;793.90;1843.20
55219;DHT22;41088;44.012;20.902;2022-08-18T08:54:53;794.00;1868.80
55219;DHT22;41088;44.012;20.902;2022-08-18T09:01:25;793.90;1843.20
55219;DHT22;41088;44.012;20.902;2022-08-18T09:20:42;794.50;1817.60
55219;DHT22;41088;44.012;20.902;2022-08-18T09:23:41;819.20;1843.20
55219;DHT22;41088;44.012;20.902;2022-08-18T09:26:51;819.30;1817.60
55219;DHT22;41088;44.012;20.902;2022-08-18T10:38:57;844.80;1638.40
55219;DHT22;41088;44.012;20.902;2022-08-18T10:56:32;845.30;1561.60
55219;DHT22;41088;44.012;20.902;2022-08-18T11:02:07;845.20;1536.00
55219;DHT22;41088;44.012;20.902;2022-08-18T11:04:44;845.10;1510.40
55219;DHT22;41088;44.012;20.902;2022-08-18T11:07:20;845.30;1510.40
55219;DHT22;41088;44.012;20.902;2022-08-18T11:09:49;845.10;1510.40
55219;DHT22;41088;44.012;20.902;2022-08-18T12:38:12;870.60;1510.40
55219;DHT22;41088;44.012;20.902;2022-08-18T12:40:41;870.60;1484.80
55219;DHT22;41088;44.012;20.902;2022-08-18T12:43:07;870.60;1484.80
55219;DHT22;41088;44.012;20.902;2022-08-18T12:45:33;870.70;1484.80
55219;DHT22;41088;44.012;20.902;2022-08-18T12:48:02;870.70;1484.80
55219;DHT22;41088;44.012;20.902;2022-08-18T12:50:29;870.60;1459.20
55219;DHT22;41088;44.012;20.902;2022-08-18T12:52:54;870.60;1484.80
55219;DHT22;41088;44.012;20.902;2022-08-18T12:55:23;870.60;1459.20
55219;DHT22;41088;44.012;20.902;2022-08-18T12:57:49;870.60;1459.20
55219;DHT22;41088;44.012;20.902;2022-08-18T13:00:17;870.70;1459.20
55219;DHT22;41088;44.012;20.902;2022-08-18T13:02:51;870.80;1459.20
55219;DHT22;41088;44.012;20.902;2022-08-18T13:05:17;870.80;1433.60
55219;DHT22;41088;44.012;20.902;2022-08-18T13:07:44;870.80;1459.20
55219;DHT22;41088;44.012;20.902;2022-08-18T13:10:10;870.80;1459.20
55219;DHT22;41088;44.012;20.902;2022-08-18T13:12:36;870.90;1459.20
55219;DHT22;41088;44.012;20.902;2022-08-18T13:15:03;871.00;1459.20
55219;DHT22;41088;44.012;20.902;2022-08-18T13:17:31;871.00;1459.20
55219;DHT22;41088;44.012;20.902;2022-08-18T13:19:57;871.00;1433.60
55219;DHT22;41088;44.012;20.902;2022-08-18T13:22:23;871.00;1433.60
55219;DHT22;41088;44.012;20.902;2022-08-18T13:24:54;871.10;1459.20
55219;DHT22;41088;44.012;20.902;2022-08-18T14:19:58;871.30;1408.00
55219;DHT22;41088;44.012;20.902;2022-08-18T14:29:52;871.00;1408.00
55219;DHT22;41088;44.012;20.902;2022-08-18T14:32:22;871.00;1408.00
55219;DHT22;41088;44.012;20.902;2022-08-18T14:40:04;871.00;1433.60
55219;DHT22;41088;44.012;20.902;2022-08-18T14:45:34;871.00;1408.00
55219;DHT22;41088;44.012;20.902;2022-08-18T14:55:17;871.00;1433.60
55219;DHT22;41088;44.012;20.902;2022-08-18T15:08:05;870.90;1459.20
55219;DHT22;41088;44.012;20.902;2022-08-18T16:02:57;870.40;1459.20
55219;DHT22;41088;44.012;20.902;2022-08-18T16:05:30;845.70;1459.20
55219;DHT22;41088;44.012;20.902;2022-08-18T16:12:08;845.70;1484.80
55219;DHT22;41088;44.012;20.902;2022-08-18T16:15:13;845.70;1484.80
55219;DHT22;41088;44.012;20.902;2022-08-18T16:50:25;844.80;1561.60
55219;DHT22;41088;44.012;20.902;2022-08-18T16:52:57;844.80;1561.60
55219;DHT22;41088;44.012;20.902;2022-08-18T16:55:23;820.10;1536.00
55219;DHT22;41088;44.012;20.902;2022-08-18T16:57:49;820.10;1561.60
55219;DHT22;41088;44.012;20.902;2022-08-18T17:00:39;820.00;1561.60
55219;DHT22;41088;44.012;20.902;2022-08-18T17:03:30;820.00;1587.20
55219;DHT22;41088;44.012;20.902;2022-08-18T17:06:37;819.80;1612.80
55219;DHT22;41088;44.012;20.902;2022-08-18T17:09:10;819.70;1638.40
55219;DHT22;41088;44.012;20.902;2022-08-18T17:14:20;819.50;1664.00
55219;DHT22;41088;44.012;20.902;2022-08-18T17:16:52;819.50;1689.60
55219;DHT22;41088;44.012;20.902;2022-08-18T17:19:33;819.30;1715.20
55219;DHT22;41088;44.012;20.902;2022-08-18T17:22:08;819.30;1766.40
55219;DHT22;41088;44.012;20.902;2022-08-18T17:24:40;819.20;1792.00
55219;DHT22;41088;44.012;20.902;2022-08-18T17:27:30;794.40;1792.00
55219;DHT22;41088;44.012;20.902;2022-08-18T17:33:22;794.10;1843.20
55219;DHT22;41088;44.012;20.902;2022-08-18T17:36:04;794.10;1843.20
55219;DHT22;41088;44.012;20.902;2022-08-18T17:38:42;793.90;1868.80
55219;DHT22;41088;44.012;20.902;2022-08-18T17:41:17;793.70;1894.40
55219;DHT22;41088;44.012;20.902;2022-08-18T17:43:48;793.60;1920.00
55219;DHT22;41088;44.012;20.902;2022-08-18T17:46:45;768.80;1894.40
55219;DHT22;41088;44.012;20.902;2022-08-18T17:49:31;768.80;1868.80
55219;DHT22;41088;44.012;20.902;2022-08-18T17:52:38;768.60;1868.80
55219;DHT22;41088;44.012;20.902;2022-08-18T17:55:21;768.50;1868.80
55219;DHT22;41088;44.012;20.902;2022-08-18T18:03:03;768.00;1894.40
55219;DHT22;41088;44.012;20.902;2022-08-18T18:05:54;768.00;1868.80
55219;DHT22;41088;44.012;20.902;2022-08-18T18:11:09;743.10;1894.40
55219;DHT22;41088;44.012;20.902;2022-08-18T18:13:38;743.00;1945.60
55219;DHT22;41088;44.012;20.902;2022-08-18T18:16:30;743.00;1945.60
55219;DHT22;41088;44.012;20.902;2022-08-18T18:19:27;742.80;1945.60
55219;DHT22;41088;44.012;20.902;2022-08-18T18:22:09;742.80;1971.20
55219;DHT22;41088;44.012;20.902;2022-08-18T18:27:34;742.60;1996.80
55219;DHT22;41088;44.012;20.902;2022-08-18T18:32:33;742.70;1996.80
55219;DHT22;41088;44.012;20.902;2022-08-18T18:35:17;742.60;1996.80
55219;DHT22;41088;44.012;20.902;2022-08-18T19:23:23;716.80;2073.60
55219;DHT22;41088;44.012;20.902;2022-08-18T19:25:46;691.90;2048.00
55219;DHT22;41088;44.012;20.902;2022-08-18T19:28:40;691.70;2073.60
55219;DHT22;41088;44.012;20.902;2022-08-18T19:31:32;691.80;2073.60
55219;DHT22;41088;44.012;20.902;2022-08-18T19:34:03;691.70;2099.20
55219;DHT22;41088;44.012;20.902;2022-08-18T19:36:56;691.70;2124.80
55219;DHT22;41088;44.012;20.902;2022-08-18T19:42:47;691.60;2150.40
55219;DHT22;41088;44.012;20.902;2022-08-18T19:48:58;691.50;2176.00
55219;DHT22;41088;44.012;20.902;2022-08-18T19:51:33;691.40;2176.00
55219;DHT22;41088;44.012;20.902;2022-08-18T20:00:00;691.30;2150.40
55219;DHT22;41088;44.012;20.902;2022-08-18T20:03:10;691.30;2124.80
55219;DHT22;41088;44.012;20.902;2022-08-18T20:09:26;691.20;2124.80
55219;DHT22;41088;44.012;20.902;2022-08-18T20:14:42;666.50;2124.80
55219;DHT22;41088;44.012;20.902;2022-08-18T20:17:22;666.50;2124.80
55219;DHT22;41088;44.012;20.902;2022-08-18T20:20:09;666.40;2124.80
55219;DHT22;41088;44.012;20.902;2022-08-18T20:22:45;666.40;2124.80
55219;DHT22;41088;44.012;20.902;2022-08-18T20:30:52;666.20;2176.00
55219;DHT22;41088;44.012;20.902;2022-08-18T20:38:48;666.10;2227.20
55219;DHT22;41088;44.012;20.902;2022-08-18T20:47:12;665.90;2304.00
55219;DHT22;41088;44.012;20.902;2022-08-18T20:50:18;665.90;2329.60
55219;DHT22;41088;44.012;20.902;2022-08-18T20:53:03;665.90;2329.60
55219;DHT22;41088;44.012;20.902;2022-08-18T20:58:13;665.80;2329.60
55219;DHT22;41088;44.012;20.902;2022-08-18T21:00:46;665.80;2329.60
55219;DHT22;41088;44.012;20.902;2022-08-18T21:03:19;665.70;2329.60
55219;DHT22;41088;44.012;20.902;2022-08-18T21:05:54;640.90;2329.60
55219;DHT22;41088;44.012;20.902;2022-08-18T21:08:28;665.60;2380.80
55219;DHT22;41088;44.012;20.902;2022-08-18T21:11:01;640.90;2355.20
55219;DHT22;41088;44.012;20.902;2022-08-18T21:16:14;640.90;2355.20
55219;DHT22;41088;44.012;20.902;2022-08-18T21:18:57;640.90;2355.20
55219;DHT22;41088;44.012;20.902;2022-08-18T21:21:30;640.90;2380.80
55219;DHT22;41088;44.012;20.902;2022-08-18T21:23:59;665.60;2406.40
55219;DHT22;41088;44.012;20.902;2022-08-18T21:26:26;665.60;2406.40
55219;DHT22;41088;44.012;20.902;2022-08-18T21:29:07;640.90;2380.80
55219;DHT22;41088;44.012;20.902;2022-08-18T21:31:41;640.90;2380.80
55219;DHT22;41088;44.012;20.902;2022-08-18T21:34:36;640.90;2380.80
55219;DHT22;41088;44.012;20.902;2022-08-18T21:37:04;640.90;2380.80
55219;DHT22;41088;44.012;20.902;2022-08-18T21:39:33;640.90;2380.80
55219;DHT22;41088;44.012;20.902;2022-08-18T21:42:00;665.60;2406.40
55219;DHT22;41088;44.012;20.902;2022-08-18T21:44:46;665.60;2406.40
55219;DHT22;41088;44.012;20.902;2022-08-18T21:47:23;665.60;2380.80
55219;DHT22;41088;44.012;20.902;2022-08-18T21:52:28;640.90;2355.20
55219;DHT22;41088;44.012;20.902;2022-08-18T21:55:05;640.90;2329.60
55219;DHT22;41088;44.012;20.902;2022-08-18T21:57:58;640.90;2329.60
55219;DHT22;41088;44.012;20.902;2022-08-18T22:00:42;640.90;2329.60
55219;DHT22;41088;44.012;20.902;2022-08-18T22:03:24;640.80;2304.00
55219;DHT22;41088;44.012;20.902;2022-08-18T22:08:32;640.80;2304.00
55219;DHT22;41088;44.012;20.902;2022-08-18T22:13:55;640.80;2278.40
55219;DHT22;41088;44.012;20.902;2022-08-18T22:16:30;640.80;2278.40
55219;DHT22;41088;44.012;20.902;2022-08-18T22:21:46;640.50;2304.00
55219;DHT22;41088;44.012;20.902;2022-08-18T22:24:19;640.60;2355.20
55219;DHT22;41088;44.012;20.902;2022-08-18T22:27:10;640.60;2304.00
55219;DHT22;41088;44.012;20.902;2022-08-18T22:30:12;640.50;2252.80
55219;DHT22;41088;44.012;20.902;2022-08-18T22:32:38;640.40;2278.40
55219;DHT22;41088;44.012;20.902;2022-08-18T22:35:05;640.40;2278.40
55219;DHT22;41088;44.012;20.902;2022-08-18T22:37:38;640.30;2278.40
55219;DHT22;41088;44.012;20.902;2022-08-18T22:40:12;640.30;2304.00
55219;DHT22;41088;44.012;20.902;2022-08-18T22:42:39;640.30;2329.60
55219;DHT22;41088;44.012;20.902;2022-08-18T22:45:08;640.10;2355.20
55219;DHT22;41088;44.012;20.902;2022-08-18T22:47:39;640.10;2380.80
55219;DHT22;41088;44.012;20.902;2022-08-18T22:50:07;640.00;2406.40
55219;DHT22;41088;44.012;20.902;2022-08-18T22:52:36;640.10;2380.80
55219;DHT22;41088;44.012;20.902;2022-08-18T22:55:08;640.00;2406.40
55219;DHT22;41088;44.012;20.902;2022-08-18T22:57:35;640.00;2406.40
55219;DHT22;41088;44.012;20.902;2022-08-18T23:00:05;640.00;2406.40
55219;DHT22;41088;44.012;20.902;2022-08-18T23:02:33;615.30;2432.00
55219;DHT22;41088;44.012;20.902;2022-08-18T23:05:00;615.30;2432.00
55219;DHT22;41088;44.012;20.902;2022-08-18T23:07:27;640.00;2432.00
55219;DHT22;41088;44.012;20.902;2022-08-18T23:09:54;640.00;2432.00
55219;DHT22;41088;44.012;20.902;2022-08-18T23:12:20;615.30;2432.00
55219;DHT22;41088;44.012;20.902;2022-08-18T23:14:46;615.30;2432.00
55219;DHT22;41088;44.012;20.902;2022-08-18T23:17:14;615.30;2432.00
55219;DHT22;41088;44.012;20.902;2022-08-18T23:19:40;615.20;2406.40
55219;DHT22;41088;44.012;20.902;2022-08-18T23:22:07;615.20;2380.80
55219;DHT22;41088;44.012;20.902;2022-08-18T23:24:34;615.20;2406.40
55219;DHT22;41088;44.012;20.902;2022-08-18T23:27:01;615.20;2355.20
55219;DHT22;41088;44.012;20.902;2022-08-18T23:29:30;615.20;2329.60
55219;DHT22;41088;44.012;20.902;2022-08-18T23:31:56;615.10;2304.00
55219;DHT22;41088;44.012;20.902;2022-08-18T23:34:23;615.10;2329.60
55219;DHT22;41088;44.012;20.902;2022-08-18T23:36:58;615.10;2278.40
55219;DHT22;41088;44.012;20.902;2022-08-18T23:39:27;615.10;2304.00
55219;DHT22;41088;44.012;20.902;2022-08-18T23:41:54;615.10;2304.00
55219;DHT22;41088;44.012;20.902;2022-08-18T23:44:22;615.00;2304.00
55219;DHT22;41088;44.012;20.902;2022-08-18T23:46:48;615.00;2304.00
55219;DHT22;41088;44.012;20.902;2022-08-18T23:49:14;615.00;2304.00
55219;DHT22;41088;44.012;20.902;2022-08-18T23:51:46;615.00;2329.60
55219;DHT22;41088;44.012;20.902;2022-08-18T23:56:43;615.00;2355.20
55219;DHT22;41088;44.012;20.902;2022-08-18T23:59:09;614.90;2380.80
